Port Stanley — V7EE9 — position and weather

sailwx.info

Track history (hours):
 
Tides and Currents Weather Stations Pressure Air Temp Water Temp Dewpoint Dewpoint Depression Visibility Wind Speed Wind Dir Waves Ship Positions

Port Stanley

Last reported at 2015-May-19 16:31 UTC. Time now 2015-May-28 06:04 UTC.
Position N 01°15' E 104°11'.
Warning: this ship's position is 8 days out of date.

Length 183 m; draft 10.8 m.

Type: Ship. MMSI: 538090299.

Date/timePositionNaut miles runAvg speedWind from/ knotsBaromVisibWave heightAir tempDewpointWater temp
2015-May-19 16:31N 01°15' E 104°11'1211.9
2015-May-19 15:33N 01°14' E 103°60'  
2015-May-16 08:09N 01°11' E 103°48'712.4
2015-May-16 07:33N 01°14' E 103°55'4 4.0
2015-May-16 06:32N 01°17' E 103°57'0 0.0
2015-May-16 05:20N 01°17' E 103°57'0 0.1
2015-May-16 04:25N 01°17' E 103°57'0 0.2
2015-May-16 03:25N 01°17' E 103°57'0 0.1
2015-May-16 02:19N 01°17' E 103°57'0 0.1
2015-May-16 01:32N 01°17' E 103°57'0 0.0
2015-May-16 00:25N 01°17' E 103°57'0 0.0
2015-May-15 23:25N 01°17' E 103°57'0 0.1
2015-May-15 22:13N 01°17' E 103°57'0 0.1
2015-May-15 21:19N 01°17' E 103°57'0 0.0
2015-May-15 19:25N 01°17' E 103°58'0 0.0
2015-May-15 18:25N 01°17' E 103°58'0 0.0
2015-May-15 16:14N 01°17' E 103°58'0 0.1
2015-May-15 15:08N 01°17' E 103°57'0 0.0
2015-May-15 14:19N 01°17' E 103°57'0 0.1
2015-May-15 13:31N 01°17' E 103°57'0 0.1
2015-May-15 12:19N 01°17' E 103°57'0 0.0
2015-May-15 11:26N 01°17' E 103°57'0 0.0
2015-May-15 10:20N 01°17' E 103°57'0 0.0
2015-May-15 09:33N 01°17' E 103°57'0 0.1
2015-May-15 08:33N 01°17' E 103°57'0 0.1
2015-May-15 07:33N 01°17' E 103°58'0 0.0
2015-May-15 06:26N 01°17' E 103°58'0 0.0
2015-May-15 05:20N 01°17' E 103°58'0 0.0
2015-May-15 04:27N 01°17' E 103°58'0 0.1
2015-May-15 03:27N 01°17' E 103°57'0 0.1
2015-May-15 02:14N 01°17' E 103°57'0 0.2
2015-May-15 01:33N 01°17' E 103°57'0 0.1
2015-May-15 00:27N 01°17' E 103°57'0 0.1
2015-May-14 23:33N 01°17' E 103°57'0 0.0
2015-May-14 22:33N 01°17' E 103°57'0 0.1
2015-May-14 21:33N 01°17' E 103°57'0 0.0
2015-May-14 20:32N 01°17' E 103°57'0 0.1
2015-May-14 19:33N 01°17' E 103°57'0 0.0
2015-May-14 18:28N 01°17' E 103°57'0 0.0
2015-May-14 17:32N 01°17' E 103°57'0 0.0
2015-May-14 16:04N 01°17' E 103°57'0 0.0
2015-May-14 15:32N 01°17' E 103°57'0 0.2
2015-May-14 14:20N 01°17' E 103°57'0 0.0
2015-May-14 13:28N 01°17' E 103°57'0 0.0
2015-May-14 12:22N 01°17' E 103°57'0 0.0
2015-May-14 11:04N 01°17' E 103°57'0 0.1
2015-May-14 10:32N 01°17' E 103°57'0 0.1
2015-May-14 09:32N 01°17' E 103°57'0 0.0
2015-May-14 08:16N 01°17' E 103°57'0 0.0
2015-May-14 07:26N 01°17' E 103°57'0 0.1
2015-May-14 06:11N 01°17' E 103°57'0 0.0
2015-May-14 04:23N 01°17' E 103°57'0 0.0
2015-May-14 03:17N 01°17' E 103°57'0 0.0
2015-May-14 02:29N 01°17' E 103°57'0 0.1
2015-May-14 01:29N 01°17' E 103°57'0 0.1
2015-May-14 00:23N 01°17' E 103°57'0 0.0
2015-May-13 23:23N 01°17' E 103°57'0 0.0
2015-May-13 22:26N 01°17' E 103°57'0 0.0
2015-May-13 21:29N 01°17' E 103°57'0 0.0
2015-May-13 20:32N 01°17' E 103°57'0 0.0
2015-May-13 19:32N 01°17' E 103°57'0 0.0
2015-May-13 18:32N 01°17' E 103°57'0 0.0
2015-May-13 17:29N 01°17' E 103°57'0 0.0
2015-May-13 16:23N 01°17' E 103°57'0 0.0
2015-May-13 15:26N 01°17' E 103°57'0 0.0
2015-May-13 14:29N 01°17' E 103°57'0 0.0
2015-May-13 13:32N 01°17' E 103°57'0 0.0
2015-May-13 12:29N 01°17' E 103°57'0 0.0
2015-May-13 11:26N 01°17' E 103°57'0 0.0
2015-May-13 10:29N 01°17' E 103°57'0 0.0
2015-May-13 09:29N 01°17' E 103°57'0 0.1
2015-May-13 08:19N 01°17' E 103°57'3 2.9
2015-May-13 07:26N 01°18' E 103°60'0 0.1
2015-May-13 06:20N 01°18' E 104°00'0 0.1
2015-May-13 05:26N 01°18' E 104°00'0 0.0
2015-May-13 04:32N 01°18' E 104°00'0 0.0
2015-May-13 03:08N 01°18' E 104°00'0 0.0
2015-May-13 02:20N 01°18' E 104°00'0 0.0
2015-May-13 01:26N 01°18' E 104°00'0 0.1
2015-May-13 00:32N 01°18' E 104°00'0 0.0
2015-May-12 23:32N 01°18' E 104°00'0 0.0
2015-May-12 22:05N 01°18' E 104°00'0 0.1
2015-May-12 21:32N 01°17' E 104°00'0 0.1
2015-May-12 20:32N 01°17' E 103°60'0 0.0
2015-May-12 19:32N 01°18' E 103°60'0 0.0
2015-May-12 07:32N 01°18' E 103°60'0 0.0
2015-May-12 06:26N 01°18' E 103°60'0 0.1
2015-May-12 05:26N 01°18' E 104°00'0 0.1
2015-May-12 04:32N 01°18' E 104°00'0 0.0
2015-May-12 03:32N 01°18' E 104°00'0 0.0
2015-May-12 02:26N 01°18' E 104°00'1 0.7
2015-May-12 01:33N 01°17' E 104°00'1 0.9
2015-May-12 00:33N 01°16' E 104°01'1211.0
2015-May-11 23:27N 01°17' E 104°13'  
Track history (hours):
 
Tides and Currents Weather Stations Pressure Air Temp Water Temp Dewpoint Dewpoint Depression Visibility Wind Speed Wind Dir Waves Ship Positions

Port Stanley

Last reported at 2015-May-19 16:31 UTC. Time now 2015-May-28 06:04 UTC.
Position N 01°15' E 104°11'.
Warning: this ship's position is 8 days out of date.

Length 183 m; draft 10.8 m.

Type: Ship. MMSI: 538090299.

Date/timePositionNaut miles runAvg speedWind from/ knotsBaromVisibWave heightAir tempDewpointWater temp
2015-May-19 16:31N 01°15' E 104°11'1211.9
2015-May-19 15:33N 01°14' E 103°60'  
2015-May-16 08:09N 01°11' E 103°48'712.4
2015-May-16 07:33N 01°14' E 103°55'4 4.0
2015-May-16 06:32N 01°17' E 103°57'0 0.0
2015-May-16 05:20N 01°17' E 103°57'0 0.1
2015-May-16 04:25N 01°17' E 103°57'0 0.2
2015-May-16 03:25N 01°17' E 103°57'0 0.1
2015-May-16 02:19N 01°17' E 103°57'0 0.1
2015-May-16 01:32N 01°17' E 103°57'0 0.0
2015-May-16 00:25N 01°17' E 103°57'0 0.0
2015-May-15 23:25N 01°17' E 103°57'0 0.1
2015-May-15 22:13N 01°17' E 103°57'0 0.1
2015-May-15 21:19N 01°17' E 103°57'0 0.0
2015-May-15 19:25N 01°17' E 103°58'0 0.0
2015-May-15 18:25N 01°17' E 103°58'0 0.0
2015-May-15 16:14N 01°17' E 103°58'0 0.1
2015-May-15 15:08N 01°17' E 103°57'0 0.0
2015-May-15 14:19N 01°17' E 103°57'0 0.1
2015-May-15 13:31N 01°17' E 103°57'0 0.1
2015-May-15 12:19N 01°17' E 103°57'0 0.0
2015-May-15 11:26N 01°17' E 103°57'0 0.0
2015-May-15 10:20N 01°17' E 103°57'0 0.0
2015-May-15 09:33N 01°17' E 103°57'0 0.1
2015-May-15 08:33N 01°17' E 103°57'0 0.1
2015-May-15 07:33N 01°17' E 103°58'0 0.0
2015-May-15 06:26N 01°17' E 103°58'0 0.0
2015-May-15 05:20N 01°17' E 103°58'0 0.0
2015-May-15 04:27N 01°17' E 103°58'0 0.1
2015-May-15 03:27N 01°17' E 103°57'0 0.1
2015-May-15 02:14N 01°17' E 103°57'0 0.2
2015-May-15 01:33N 01°17' E 103°57'0 0.1
2015-May-15 00:27N 01°17' E 103°57'0 0.1
2015-May-14 23:33N 01°17' E 103°57'0 0.0
2015-May-14 22:33N 01°17' E 103°57'0 0.1
2015-May-14 21:33N 01°17' E 103°57'0 0.0
2015-May-14 20:32N 01°17' E 103°57'0 0.1
2015-May-14 19:33N 01°17' E 103°57'0 0.0
2015-May-14 18:28N 01°17' E 103°57'0 0.0
2015-May-14 17:32N 01°17' E 103°57'0 0.0
2015-May-14 16:04N 01°17' E 103°57'0 0.0
2015-May-14 15:32N 01°17' E 103°57'0 0.2
2015-May-14 14:20N 01°17' E 103°57'0 0.0
2015-May-14 13:28N 01°17' E 103°57'0 0.0
2015-May-14 12:22N 01°17' E 103°57'0 0.0
2015-May-14 11:04N 01°17' E 103°57'0 0.1
2015-May-14 10:32N 01°17' E 103°57'0 0.1
2015-May-14 09:32N 01°17' E 103°57'0 0.0
2015-May-14 08:16N 01°17' E 103°57'0 0.0
2015-May-14 07:26N 01°17' E 103°57'0 0.1
2015-May-14 06:11N 01°17' E 103°57'0 0.0
2015-May-14 04:23N 01°17' E 103°57'0 0.0
2015-May-14 03:17N 01°17' E 103°57'0 0.0
2015-May-14 02:29N 01°17' E 103°57'0 0.1
2015-May-14 01:29N 01°17' E 103°57'0 0.1
2015-May-14 00:23N 01°17' E 103°57'0 0.0
2015-May-13 23:23N 01°17' E 103°57'0 0.0
2015-May-13 22:26N 01°17' E 103°57'0 0.0
2015-May-13 21:29N 01°17' E 103°57'0 0.0
2015-May-13 20:32N 01°17' E 103°57'0 0.0
2015-May-13 19:32N 01°17' E 103°57'0 0.0
2015-May-13 18:32N 01°17' E 103°57'0 0.0
2015-May-13 17:29N 01°17' E 103°57'0 0.0
2015-May-13 16:23N 01°17' E 103°57'0 0.0
2015-May-13 15:26N 01°17' E 103°57'0 0.0
2015-May-13 14:29N 01°17' E 103°57'0 0.0
2015-May-13 13:32N 01°17' E 103°57'0 0.0
2015-May-13 12:29N 01°17' E 103°57'0 0.0
2015-May-13 11:26N 01°17' E 103°57'0 0.0
2015-May-13 10:29N 01°17' E 103°57'0 0.0
2015-May-13 09:29N 01°17' E 103°57'0 0.1
2015-May-13 08:19N 01°17' E 103°57'3 2.9
2015-May-13 07:26N 01°18' E 103°60'0 0.1
2015-May-13 06:20N 01°18' E 104°00'0 0.1
2015-May-13 05:26N 01°18' E 104°00'0 0.0
2015-May-13 04:32N 01°18' E 104°00'0 0.0
2015-May-13 03:08N 01°18' E 104°00'0 0.0
2015-May-13 02:20N 01°18' E 104°00'0 0.0
2015-May-13 01:26N 01°18' E 104°00'0 0.1
2015-May-13 00:32N 01°18' E 104°00'0 0.0
2015-May-12 23:32N 01°18' E 104°00'0 0.0
2015-May-12 22:05N 01°18' E 104°00'0 0.1
2015-May-12 21:32N 01°17' E 104°00'0 0.1
2015-May-12 20:32N 01°17' E 103°60'0 0.0
2015-May-12 19:32N 01°18' E 103°60'0 0.0
2015-May-12 07:32N 01°18' E 103°60'0 0.0
2015-May-12 06:26N 01°18' E 103°60'0 0.1
2015-May-12 05:26N 01°18' E 104°00'0 0.1
2015-May-12 04:32N 01°18' E 104°00'0 0.0
2015-May-12 03:32N 01°18' E 104°00'0 0.0
2015-May-12 02:26N 01°18' E 104°00'1 0.7
2015-May-12 01:33N 01°17' E 104°00'1 0.9
2015-May-12 00:33N 01°16' E 104°01'1211.0
2015-May-11 23:27N 01°17' E 104°13'  

Dump ship's entire track history